sensor_id;sensor_type;location;lat;lon;timestamp;P1;durP1;ratioP1;P2;durP2;ratioP2
19671;SDS011;9983;51.114;13.788;2022-11-03T00:00:58;3.17;;;1.95;;
19671;SDS011;9983;51.114;13.788;2022-11-03T00:05:59;6.80;;;2.40;;
19671;SDS011;9983;51.114;13.788;2022-11-03T00:11:09;6.22;;;2.00;;
19671;SDS011;9983;51.114;13.788;2022-11-03T00:16:11;5.10;;;1.98;;
19671;SDS011;9983;51.114;13.788;2022-11-03T00:21:12;4.18;;;2.45;;
19671;SDS011;9983;51.114;13.788;2022-11-03T00:31:24;4.78;;;2.50;;
19671;SDS011;9983;51.114;13.788;2022-11-03T00:36:27;5.50;;;1.88;;
19671;SDS011;9983;51.114;13.788;2022-11-03T00:41:32;4.35;;;2.00;;
19671;SDS011;9983;51.114;13.788;2022-11-03T00:46:32;4.60;;;2.00;;
19671;SDS011;9983;51.114;13.788;2022-11-03T00:51:35;2.35;;;1.58;;
19671;SDS011;9983;51.114;13.788;2022-11-03T00:56:36;4.13;;;1.60;;
19671;SDS011;9983;51.114;13.788;2022-11-03T01:01:39;3.90;;;2.15;;
19671;SDS011;9983;51.114;13.788;2022-11-03T01:06:43;3.08;;;2.10;;
19671;SDS011;9983;51.114;13.788;2022-11-03T01:11:58;4.05;;;2.15;;
19671;SDS011;9983;51.114;13.788;2022-11-03T01:17:19;2.67;;;2.20;;
19671;SDS011;9983;51.114;13.788;2022-11-03T01:22:20;5.15;;;2.20;;
19671;SDS011;9983;51.114;13.788;2022-11-03T01:27:21;4.93;;;2.22;;
19671;SDS011;9983;51.114;13.788;2022-11-03T01:32:22;4.07;;;2.35;;
19671;SDS011;9983;51.114;13.788;2022-11-03T01:37:23;2.72;;;2.05;;
19671;SDS011;9983;51.114;13.788;2022-11-03T01:42:23;1.92;;;1.60;;
19671;SDS011;9983;51.114;13.788;2022-11-03T01:47:27;4.60;;;2.60;;
19671;SDS011;9983;51.114;13.788;2022-11-03T01:57:58;3.67;;;1.90;;
19671;SDS011;9983;51.114;13.788;2022-11-03T02:03:02;5.50;;;2.25;;
19671;SDS011;9983;51.114;13.788;2022-11-03T02:08:13;2.63;;;1.95;;
19671;SDS011;9983;51.114;13.788;2022-11-03T02:13:19;2.10;;;1.73;;
19671;SDS011;9983;51.114;13.788;2022-11-03T02:18:23;3.22;;;1.70;;
19671;SDS011;9983;51.114;13.788;2022-11-03T02:28:42;4.07;;;2.08;;
19671;SDS011;9983;51.114;13.788;2022-11-03T02:34:00;4.82;;;1.80;;
19671;SDS011;9983;51.114;13.788;2022-11-03T02:39:14;2.45;;;1.70;;
19671;SDS011;9983;51.114;13.788;2022-11-03T02:44:17;2.55;;;1.90;;
19671;SDS011;9983;51.114;13.788;2022-11-03T02:49:19;5.05;;;2.30;;
19671;SDS011;9983;51.114;13.788;2022-11-03T02:54:21;3.40;;;1.70;;
19671;SDS011;9983;51.114;13.788;2022-11-03T02:59:26;3.38;;;1.83;;
19671;SDS011;9983;51.114;13.788;2022-11-03T03:04:33;4.63;;;1.90;;
19671;SDS011;9983;51.114;13.788;2022-11-03T03:09:50;3.42;;;2.20;;
19671;SDS011;9983;51.114;13.788;2022-11-03T03:14:57;2.50;;;1.90;;
19671;SDS011;9983;51.114;13.788;2022-11-03T03:20:10;5.20;;;2.13;;
19671;SDS011;9983;51.114;13.788;2022-11-03T03:30:28;4.35;;;2.08;;
19671;SDS011;9983;51.114;13.788;2022-11-03T03:35:30;7.57;;;2.28;;
19671;SDS011;9983;51.114;13.788;2022-11-03T03:40:34;3.08;;;1.55;;
19671;SDS011;9983;51.114;13.788;2022-11-03T03:45:37;2.58;;;1.52;;
19671;SDS011;9983;51.114;13.788;2022-11-03T03:50:38;4.45;;;2.47;;
19671;SDS011;9983;51.114;13.788;2022-11-03T03:55:43;3.72;;;1.85;;
19671;SDS011;9983;51.114;13.788;2022-11-03T04:00:46;2.67;;;1.73;;
19671;SDS011;9983;51.114;13.788;2022-11-03T04:05:47;5.25;;;2.55;;
19671;SDS011;9983;51.114;13.788;2022-11-03T04:10:47;4.57;;;2.05;;
19671;SDS011;9983;51.114;13.788;2022-11-03T04:16:07;2.85;;;2.25;;
19671;SDS011;9983;51.114;13.788;2022-11-03T04:21:26;5.65;;;2.30;;
19671;SDS011;9983;51.114;13.788;2022-11-03T04:26:45;4.35;;;2.17;;
19671;SDS011;9983;51.114;13.788;2022-11-03T04:31:46;3.05;;;2.13;;
19671;SDS011;9983;51.114;13.788;2022-11-03T04:36:46;2.40;;;2.03;;
19671;SDS011;9983;51.114;13.788;2022-11-03T04:41:46;4.03;;;2.63;;
19671;SDS011;9983;51.114;13.788;2022-11-03T04:46:47;4.03;;;2.95;;
19671;SDS011;9983;51.114;13.788;2022-11-03T04:51:47;3.20;;;2.75;;
19671;SDS011;9983;51.114;13.788;2022-11-03T04:56:49;7.28;;;2.72;;
19671;SDS011;9983;51.114;13.788;2022-11-03T05:01:49;3.97;;;2.92;;
19671;SDS011;9983;51.114;13.788;2022-11-03T05:06:50;3.30;;;2.38;;
19671;SDS011;9983;51.114;13.788;2022-11-03T05:11:52;3.92;;;2.75;;
19671;SDS011;9983;51.114;13.788;2022-11-03T05:16:53;4.30;;;1.90;;
19671;SDS011;9983;51.114;13.788;2022-11-03T05:21:54;2.80;;;1.90;;
19671;SDS011;9983;51.114;13.788;2022-11-03T05:26:57;2.45;;;2.25;;
19671;SDS011;9983;51.114;13.788;2022-11-03T05:31:58;3.63;;;2.08;;
19671;SDS011;9983;51.114;13.788;2022-11-03T05:37:45;4.25;;;1.70;;
19671;SDS011;9983;51.114;13.788;2022-11-03T05:42:34;4.20;;;2.47;;
19671;SDS011;9983;51.114;13.788;2022-11-03T05:47:38;5.68;;;2.25;;
19671;SDS011;9983;51.114;13.788;2022-11-03T05:52:39;3.50;;;2.35;;
19671;SDS011;9983;51.114;13.788;2022-11-03T05:57:40;5.72;;;2.78;;
19671;SDS011;9983;51.114;13.788;2022-11-03T06:02:40;3.50;;;2.53;;
19671;SDS011;9983;51.114;13.788;2022-11-03T06:07:42;3.78;;;2.58;;
19671;SDS011;9983;51.114;13.788;2022-11-03T06:12:44;3.10;;;1.92;;
19671;SDS011;9983;51.114;13.788;2022-11-03T06:17:44;6.20;;;3.08;;
19671;SDS011;9983;51.114;13.788;2022-11-03T06:22:44;4.75;;;3.60;;
19671;SDS011;9983;51.114;13.788;2022-11-03T06:27:45;4.15;;;2.28;;
19671;SDS011;9983;51.114;13.788;2022-11-03T06:32:45;6.57;;;3.35;;
19671;SDS011;9983;51.114;13.788;2022-11-03T06:37:45;5.13;;;4.03;;
19671;SDS011;9983;51.114;13.788;2022-11-03T06:42:46;8.52;;;3.67;;
19671;SDS011;9983;51.114;13.788;2022-11-03T06:47:46;7.32;;;3.85;;
19671;SDS011;9983;51.114;13.788;2022-11-03T06:52:47;14.98;;;9.07;;
19671;SDS011;9983;51.114;13.788;2022-11-03T06:57:50;17.15;;;10.57;;
19671;SDS011;9983;51.114;13.788;2022-11-03T07:08:20;16.23;;;11.90;;
19671;SDS011;9983;51.114;13.788;2022-11-03T07:13:23;15.65;;;11.93;;
19671;SDS011;9983;51.114;13.788;2022-11-03T07:18:26;16.83;;;11.32;;
19671;SDS011;9983;51.114;13.788;2022-11-03T07:23:29;14.02;;;7.70;;
19671;SDS011;9983;51.114;13.788;2022-11-03T07:28:31;20.27;;;13.45;;
19671;SDS011;9983;51.114;13.788;2022-11-03T07:33:36;16.08;;;9.65;;
19671;SDS011;9983;51.114;13.788;2022-11-03T07:38:36;10.15;;;4.53;;
19671;SDS011;9983;51.114;13.788;2022-11-03T07:43:37;8.48;;;4.90;;
19671;SDS011;9983;51.114;13.788;2022-11-03T07:48:47;6.85;;;5.22;;
19671;SDS011;9983;51.114;13.788;2022-11-03T07:53:51;7.57;;;3.50;;
19671;SDS011;9983;51.114;13.788;2022-11-03T07:58:58;7.45;;;4.75;;
19671;SDS011;9983;51.114;13.788;2022-11-03T08:04:02;6.63;;;2.92;;
19671;SDS011;9983;51.114;13.788;2022-11-03T08:09:04;6.95;;;3.15;;
19671;SDS011;9983;51.114;13.788;2022-11-03T08:14:05;5.78;;;2.83;;
19671;SDS011;9983;51.114;13.788;2022-11-03T08:19:06;4.47;;;2.30;;
19671;SDS011;9983;51.114;13.788;2022-11-03T08:24:07;4.88;;;2.60;;
19671;SDS011;9983;51.114;13.788;2022-11-03T08:29:07;4.72;;;2.53;;
19671;SDS011;9983;51.114;13.788;2022-11-03T08:34:07;3.95;;;2.55;;
19671;SDS011;9983;51.114;13.788;2022-11-03T08:39:08;5.15;;;1.95;;
19671;SDS011;9983;51.114;13.788;2022-11-03T08:44:09;3.88;;;2.13;;
19671;SDS011;9983;51.114;13.788;2022-11-03T08:49:09;3.75;;;2.05;;
19671;SDS011;9983;51.114;13.788;2022-11-03T08:54:09;4.10;;;2.03;;
19671;SDS011;9983;51.114;13.788;2022-11-03T08:59:09;3.85;;;1.90;;
19671;SDS011;9983;51.114;13.788;2022-11-03T09:04:10;5.35;;;1.85;;
19671;SDS011;9983;51.114;13.788;2022-11-03T09:09:10;4.70;;;2.00;;
19671;SDS011;9983;51.114;13.788;2022-11-03T09:14:10;5.70;;;1.90;;
19671;SDS011;9983;51.114;13.788;2022-11-03T09:19:11;3.38;;;1.70;;
19671;SDS011;9983;51.114;13.788;2022-11-03T09:24:11;3.13;;;1.60;;
19671;SDS011;9983;51.114;13.788;2022-11-03T09:29:11;2.25;;;1.30;;
19671;SDS011;9983;51.114;13.788;2022-11-03T09:34:11;2.25;;;1.38;;
19671;SDS011;9983;51.114;13.788;2022-11-03T09:39:12;3.70;;;1.90;;
19671;SDS011;9983;51.114;13.788;2022-11-03T09:44:13;3.65;;;2.00;;
19671;SDS011;9983;51.114;13.788;2022-11-03T09:49:13;2.30;;;1.40;;
19671;SDS011;9983;51.114;13.788;2022-11-03T09:54:15;4.10;;;1.90;;
19671;SDS011;9983;51.114;13.788;2022-11-03T09:59:17;7.50;;;2.13;;
19671;SDS011;9983;51.114;13.788;2022-11-03T10:04:20;1.88;;;1.65;;
19671;SDS011;9983;51.114;13.788;2022-11-03T10:09:26;3.50;;;1.75;;
19671;SDS011;9983;51.114;13.788;2022-11-03T10:14:28;3.17;;;1.60;;
19671;SDS011;9983;51.114;13.788;2022-11-03T10:19:28;2.50;;;1.20;;
19671;SDS011;9983;51.114;13.788;2022-11-03T10:24:28;2.65;;;1.67;;
19671;SDS011;9983;51.114;13.788;2022-11-03T10:29:29;2.75;;;1.60;;
19671;SDS011;9983;51.114;13.788;2022-11-03T10:39:34;3.10;;;1.58;;
19671;SDS011;9983;51.114;13.788;2022-11-03T10:44:34;3.33;;;1.27;;
19671;SDS011;9983;51.114;13.788;2022-11-03T10:49:34;3.77;;;1.50;;
19671;SDS011;9983;51.114;13.788;2022-11-03T10:54:35;1.75;;;1.38;;
19671;SDS011;9983;51.114;13.788;2022-11-03T10:59:36;2.97;;;1.52;;
19671;SDS011;9983;51.114;13.788;2022-11-03T11:04:37;2.30;;;1.30;;
19671;SDS011;9983;51.114;13.788;2022-11-03T11:09:38;2.70;;;1.70;;
19671;SDS011;9983;51.114;13.788;2022-11-03T11:14:38;2.58;;;1.67;;
19671;SDS011;9983;51.114;13.788;2022-11-03T11:25:20;4.07;;;1.63;;
19671;SDS011;9983;51.114;13.788;2022-11-03T11:31:00;2.75;;;1.65;;
19671;SDS011;9983;51.114;13.788;2022-11-03T11:36:01;4.28;;;1.90;;
19671;SDS011;9983;51.114;13.788;2022-11-03T11:41:03;4.28;;;1.50;;
19671;SDS011;9983;51.114;13.788;2022-11-03T11:51:21;2.10;;;1.40;;
19671;SDS011;9983;51.114;13.788;2022-11-03T11:56:23;2.95;;;1.80;;
19671;SDS011;9983;51.114;13.788;2022-11-03T12:01:32;3.33;;;1.40;;
19671;SDS011;9983;51.114;13.788;2022-11-03T12:06:36;4.30;;;1.40;;
19671;SDS011;9983;51.114;13.788;2022-11-03T12:11:42;3.28;;;1.58;;
19671;SDS011;9983;51.114;13.788;2022-11-03T12:16:44;3.33;;;1.88;;
19671;SDS011;9983;51.114;13.788;2022-11-03T12:21:45;2.75;;;1.90;;
19671;SDS011;9983;51.114;13.788;2022-11-03T12:26:47;3.05;;;1.77;;
19671;SDS011;9983;51.114;13.788;2022-11-03T12:31:47;3.85;;;2.35;;
19671;SDS011;9983;51.114;13.788;2022-11-03T12:36:48;4.78;;;2.35;;
19671;SDS011;9983;51.114;13.788;2022-11-03T12:41:49;2.47;;;2.10;;
19671;SDS011;9983;51.114;13.788;2022-11-03T12:46:49;6.25;;;2.47;;
19671;SDS011;9983;51.114;13.788;2022-11-03T12:51:49;5.33;;;2.47;;
19671;SDS011;9983;51.114;13.788;2022-11-03T12:56:50;4.50;;;2.45;;
19671;SDS011;9983;51.114;13.788;2022-11-03T13:01:52;3.30;;;2.30;;
19671;SDS011;9983;51.114;13.788;2022-11-03T13:06:52;4.68;;;2.80;;
19671;SDS011;9983;51.114;13.788;2022-11-03T13:11:52;3.87;;;2.40;;
19671;SDS011;9983;51.114;13.788;2022-11-03T13:17:11;2.70;;;2.20;;
19671;SDS011;9983;51.114;13.788;2022-11-03T13:22:13;3.00;;;2.10;;
19671;SDS011;9983;51.114;13.788;2022-11-03T13:27:13;3.70;;;2.50;;
19671;SDS011;9983;51.114;13.788;2022-11-03T13:32:14;4.07;;;2.50;;
19671;SDS011;9983;51.114;13.788;2022-11-03T13:37:14;5.33;;;2.23;;
19671;SDS011;9983;51.114;13.788;2022-11-03T13:42:14;4.60;;;2.70;;
19671;SDS011;9983;51.114;13.788;2022-11-03T13:47:15;4.43;;;2.70;;
19671;SDS011;9983;51.114;13.788;2022-11-03T13:52:15;4.40;;;2.72;;
19671;SDS011;9983;51.114;13.788;2022-11-03T13:57:15;4.35;;;2.53;;
19671;SDS011;9983;51.114;13.788;2022-11-03T14:02:16;4.60;;;2.75;;
19671;SDS011;9983;51.114;13.788;2022-11-03T14:07:16;3.92;;;2.45;;
19671;SDS011;9983;51.114;13.788;2022-11-03T14:12:16;5.68;;;2.58;;
19671;SDS011;9983;51.114;13.788;2022-11-03T14:17:33;6.90;;;2.97;;
19671;SDS011;9983;51.114;13.788;2022-11-03T14:22:34;3.25;;;2.50;;
19671;SDS011;9983;51.114;13.788;2022-11-03T14:27:35;5.97;;;2.80;;
19671;SDS011;9983;51.114;13.788;2022-11-03T14:32:35;4.73;;;3.30;;
19671;SDS011;9983;51.114;13.788;2022-11-03T14:37:35;5.55;;;3.00;;
19671;SDS011;9983;51.114;13.788;2022-11-03T14:42:36;4.65;;;2.92;;
19671;SDS011;9983;51.114;13.788;2022-11-03T14:47:36;3.88;;;2.75;;
19671;SDS011;9983;51.114;13.788;2022-11-03T14:52:36;4.18;;;2.72;;
19671;SDS011;9983;51.114;13.788;2022-11-03T14:57:36;5.25;;;3.08;;
19671;SDS011;9983;51.114;13.788;2022-11-03T15:02:37;5.80;;;3.33;;
19671;SDS011;9983;51.114;13.788;2022-11-03T15:07:37;5.00;;;3.15;;
19671;SDS011;9983;51.114;13.788;2022-11-03T15:12:37;5.68;;;3.17;;
19671;SDS011;9983;51.114;13.788;2022-11-03T15:17:37;5.82;;;2.92;;
19671;SDS011;9983;51.114;13.788;2022-11-03T15:22:38;5.70;;;3.50;;
19671;SDS011;9983;51.114;13.788;2022-11-03T15:27:38;4.53;;;3.10;;
19671;SDS011;9983;51.114;13.788;2022-11-03T15:32:38;5.15;;;3.70;;
19671;SDS011;9983;51.114;13.788;2022-11-03T15:37:38;7.80;;;3.40;;
19671;SDS011;9983;51.114;13.788;2022-11-03T15:42:39;6.43;;;3.35;;
19671;SDS011;9983;51.114;13.788;2022-11-03T15:47:39;4.90;;;3.93;;
19671;SDS011;9983;51.114;13.788;2022-11-03T15:52:39;5.13;;;3.15;;
19671;SDS011;9983;51.114;13.788;2022-11-03T15:57:40;8.55;;;4.03;;
19671;SDS011;9983;51.114;13.788;2022-11-03T16:02:40;6.72;;;3.88;;
19671;SDS011;9983;51.114;13.788;2022-11-03T16:07:41;5.88;;;3.67;;
19671;SDS011;9983;51.114;13.788;2022-11-03T16:12:41;9.32;;;3.92;;
19671;SDS011;9983;51.114;13.788;2022-11-03T16:17:43;10.85;;;3.60;;
19671;SDS011;9983;51.114;13.788;2022-11-03T16:22:43;8.45;;;4.03;;
19671;SDS011;9983;51.114;13.788;2022-11-03T16:27:43;7.55;;;3.58;;
19671;SDS011;9983;51.114;13.788;2022-11-03T16:32:43;5.25;;;3.13;;
19671;SDS011;9983;51.114;13.788;2022-11-03T16:37:44;4.93;;;3.43;;
19671;SDS011;9983;51.114;13.788;2022-11-03T16:42:44;4.85;;;3.58;;
19671;SDS011;9983;51.114;13.788;2022-11-03T16:47:45;6.47;;;4.35;;
19671;SDS011;9983;51.114;13.788;2022-11-03T16:52:47;6.78;;;3.80;;
19671;SDS011;9983;51.114;13.788;2022-11-03T16:57:48;8.65;;;4.30;;
19671;SDS011;9983;51.114;13.788;2022-11-03T17:02:48;6.70;;;3.90;;
19671;SDS011;9983;51.114;13.788;2022-11-03T17:07:49;5.32;;;4.38;;
19671;SDS011;9983;51.114;13.788;2022-11-03T17:12:50;5.35;;;3.88;;
19671;SDS011;9983;51.114;13.788;2022-11-03T17:17:50;7.18;;;3.47;;
19671;SDS011;9983;51.114;13.788;2022-11-03T17:22:50;5.87;;;3.70;;
19671;SDS011;9983;51.114;13.788;2022-11-03T17:27:52;6.75;;;3.97;;
19671;SDS011;9983;51.114;13.788;2022-11-03T17:32:55;5.95;;;4.20;;
19671;SDS011;9983;51.114;13.788;2022-11-03T17:37:59;8.07;;;4.10;;
19671;SDS011;9983;51.114;13.788;2022-11-03T17:43:02;8.65;;;4.30;;
19671;SDS011;9983;51.114;13.788;2022-11-03T17:48:03;6.65;;;3.88;;
19671;SDS011;9983;51.114;13.788;2022-11-03T17:53:04;8.90;;;4.57;;
19671;SDS011;9983;51.114;13.788;2022-11-03T17:58:05;6.20;;;4.47;;
19671;SDS011;9983;51.114;13.788;2022-11-03T18:03:07;5.88;;;4.57;;
19671;SDS011;9983;51.114;13.788;2022-11-03T18:08:10;7.05;;;4.63;;
19671;SDS011;9983;51.114;13.788;2022-11-03T18:13:12;6.80;;;4.82;;
19671;SDS011;9983;51.114;13.788;2022-11-03T18:18:39;11.20;;;5.22;;
19671;SDS011;9983;51.114;13.788;2022-11-03T18:23:41;8.07;;;5.00;;
19671;SDS011;9983;51.114;13.788;2022-11-03T18:28:42;10.10;;;5.10;;
19671;SDS011;9983;51.114;13.788;2022-11-03T18:33:42;8.02;;;5.45;;
19671;SDS011;9983;51.114;13.788;2022-11-03T18:38:43;11.02;;;4.78;;
19671;SDS011;9983;51.114;13.788;2022-11-03T18:43:44;8.90;;;5.30;;
19671;SDS011;9983;51.114;13.788;2022-11-03T18:48:44;5.32;;;4.80;;
19671;SDS011;9983;51.114;13.788;2022-11-03T18:53:44;9.13;;;6.15;;
19671;SDS011;9983;51.114;13.788;2022-11-03T18:58:45;8.27;;;5.38;;
19671;SDS011;9983;51.114;13.788;2022-11-03T19:03:47;7.80;;;5.85;;
19671;SDS011;9983;51.114;13.788;2022-11-03T19:08:48;9.05;;;6.50;;
19671;SDS011;9983;51.114;13.788;2022-11-03T19:13:57;10.88;;;6.55;;
19671;SDS011;9983;51.114;13.788;2022-11-03T19:18:58;9.15;;;6.10;;
19671;SDS011;9983;51.114;13.788;2022-11-03T19:23:58;8.32;;;6.35;;
19671;SDS011;9983;51.114;13.788;2022-11-03T19:28:59;8.03;;;6.63;;
19671;SDS011;9983;51.114;13.788;2022-11-03T19:34:03;8.45;;;6.75;;
19671;SDS011;9983;51.114;13.788;2022-11-03T19:39:07;10.15;;;7.88;;
19671;SDS011;9983;51.114;13.788;2022-11-03T19:44:16;11.30;;;7.68;;
19671;SDS011;9983;51.114;13.788;2022-11-03T19:49:16;9.15;;;7.07;;
19671;SDS011;9983;51.114;13.788;2022-11-03T19:54:18;9.00;;;7.05;;
19671;SDS011;9983;51.114;13.788;2022-11-03T19:59:20;10.98;;;7.57;;
19671;SDS011;9983;51.114;13.788;2022-11-03T20:04:20;11.17;;;7.10;;
19671;SDS011;9983;51.114;13.788;2022-11-03T20:09:21;9.47;;;6.97;;
19671;SDS011;9983;51.114;13.788;2022-11-03T20:14:25;8.27;;;6.78;;
19671;SDS011;9983;51.114;13.788;2022-11-03T20:19:26;7.72;;;6.70;;
19671;SDS011;9983;51.114;13.788;2022-11-03T20:24:26;10.25;;;6.93;;
19671;SDS011;9983;51.114;13.788;2022-11-03T20:29:26;10.00;;;6.95;;
19671;SDS011;9983;51.114;13.788;2022-11-03T20:34:27;10.80;;;7.30;;
19671;SDS011;9983;51.114;13.788;2022-11-03T20:39:27;9.60;;;7.15;;
19671;SDS011;9983;51.114;13.788;2022-11-03T20:44:28;8.20;;;6.80;;
19671;SDS011;9983;51.114;13.788;2022-11-03T20:49:28;8.90;;;6.37;;
19671;SDS011;9983;51.114;13.788;2022-11-03T20:54:28;10.05;;;7.18;;
19671;SDS011;9983;51.114;13.788;2022-11-03T20:59:29;10.85;;;7.10;;
19671;SDS011;9983;51.114;13.788;2022-11-03T21:04:29;11.18;;;7.28;;
19671;SDS011;9983;51.114;13.788;2022-11-03T21:09:30;8.93;;;6.28;;
19671;SDS011;9983;51.114;13.788;2022-11-03T21:14:30;8.05;;;6.15;;
19671;SDS011;9983;51.114;13.788;2022-11-03T21:19:32;9.38;;;6.13;;
19671;SDS011;9983;51.114;13.788;2022-11-03T21:24:51;10.15;;;5.72;;
19671;SDS011;9983;51.114;13.788;2022-11-03T21:29:51;7.40;;;5.93;;
19671;SDS011;9983;51.114;13.788;2022-11-03T21:34:51;11.85;;;7.93;;
19671;SDS011;9983;51.114;13.788;2022-11-03T21:39:52;12.43;;;6.97;;
19671;SDS011;9983;51.114;13.788;2022-11-03T21:44:52;8.50;;;6.07;;
19671;SDS011;9983;51.114;13.788;2022-11-03T21:49:52;8.80;;;5.75;;
19671;SDS011;9983;51.114;13.788;2022-11-03T21:54:52;11.35;;;6.22;;
19671;SDS011;9983;51.114;13.788;2022-11-03T21:59:53;9.38;;;6.30;;
19671;SDS011;9983;51.114;13.788;2022-11-03T22:04:57;9.40;;;6.35;;
19671;SDS011;9983;51.114;13.788;2022-11-03T22:09:57;8.00;;;6.00;;
19671;SDS011;9983;51.114;13.788;2022-11-03T22:14:58;10.02;;;5.72;;
19671;SDS011;9983;51.114;13.788;2022-11-03T22:20:17;7.75;;;5.80;;
19671;SDS011;9983;51.114;13.788;2022-11-03T22:25:35;10.52;;;5.70;;
19671;SDS011;9983;51.114;13.788;2022-11-03T22:30:54;8.13;;;5.90;;
19671;SDS011;9983;51.114;13.788;2022-11-03T22:36:13;8.45;;;5.35;;
19671;SDS011;9983;51.114;13.788;2022-11-03T22:41:25;9.75;;;6.00;;
19671;SDS011;9983;51.114;13.788;2022-11-03T22:46:46;8.57;;;5.68;;
19671;SDS011;9983;51.114;13.788;2022-11-03T22:51:46;11.45;;;5.15;;
19671;SDS011;9983;51.114;13.788;2022-11-03T22:56:46;7.75;;;5.60;;
19671;SDS011;9983;51.114;13.788;2022-11-03T23:01:47;10.20;;;5.25;;
19671;SDS011;9983;51.114;13.788;2022-11-03T23:06:47;10.13;;;5.97;;
19671;SDS011;9983;51.114;13.788;2022-11-03T23:11:47;9.15;;;5.57;;
19671;SDS011;9983;51.114;13.788;2022-11-03T23:16:47;6.68;;;4.68;;
19671;SDS011;9983;51.114;13.788;2022-11-03T23:21:48;7.45;;;5.53;;
19671;SDS011;9983;51.114;13.788;2022-11-03T23:26:50;8.20;;;5.40;;
19671;SDS011;9983;51.114;13.788;2022-11-03T23:31:50;6.90;;;5.43;;
19671;SDS011;9983;51.114;13.788;2022-11-03T23:36:51;9.68;;;5.55;;
19671;SDS011;9983;51.114;13.788;2022-11-03T23:41:52;6.45;;;5.40;;
19671;SDS011;9983;51.114;13.788;2022-11-03T23:46:52;6.65;;;5.10;;
19671;SDS011;9983;51.114;13.788;2022-11-03T23:52:10;10.15;;;6.30;;
19671;SDS011;9983;51.114;13.788;2022-11-03T23:57:11;9.30;;;6.25;;
